createdAt,value
2023-05-02T00:00:26.907Z,15.46
2023-05-02T00:03:48.459Z,15.48
2023-05-02T00:06:54.191Z,15.47
2023-05-02T00:09:56.910Z,15.46
2023-05-02T00:12:59.428Z,15.44
2023-05-02T00:16:02.119Z,15.42
2023-05-02T00:19:04.714Z,15.43
2023-05-02T00:22:07.263Z,15.42
2023-05-02T00:25:10.112Z,15.41
2023-05-02T00:28:13.887Z,15.38
2023-05-02T00:31:17.107Z,15.34
2023-05-02T00:34:19.687Z,15.34
2023-05-02T00:37:25.885Z,15.31
2023-05-02T00:40:28.465Z,15.33
2023-05-02T00:43:31.539Z,15.30
2023-05-02T00:46:34.548Z,15.26
2023-05-02T00:49:37.288Z,15.27
2023-05-02T00:52:40.026Z,15.36
2023-05-02T00:55:43.376Z,15.31
2023-05-02T00:58:47.168Z,15.33
2023-05-02T01:01:49.818Z,15.27
2023-05-02T01:04:58.501Z,15.28
2023-05-02T01:08:19.381Z,15.33
2023-05-02T01:11:40.782Z,15.27
2023-05-02T01:14:45.795Z,15.26
2023-05-02T01:17:49.706Z,15.22
2023-05-02T01:20:57.451Z,15.24
2023-05-02T01:24:06.991Z,15.31
2023-05-02T01:27:23.207Z,15.32
2023-05-02T01:30:27.990Z,15.26
2023-05-02T01:33:31.921Z,15.26
2023-05-02T01:36:34.926Z,15.29
2023-05-02T01:39:38.381Z,15.23
2023-05-02T01:42:42.614Z,15.18
2023-05-02T01:45:47.330Z,15.31
2023-05-02T01:48:52.487Z,15.16
2023-05-02T01:51:55.746Z,15.13
2023-05-02T01:54:59.260Z,15.11
2023-05-02T01:58:02.285Z,15.10
2023-05-02T02:01:05.941Z,15.10
2023-05-02T02:04:09.812Z,15.05
2023-05-02T02:07:14.038Z,15.06
2023-05-02T02:10:17.119Z,15.08
2023-05-02T02:13:26.893Z,15.08
2023-05-02T02:16:30.861Z,15.09
2023-05-02T02:19:33.561Z,15.10
2023-05-02T02:22:38.703Z,15.01
2023-05-02T02:25:42.394Z,14.98
2023-05-02T02:28:45.161Z,14.93
2023-05-02T02:31:47.745Z,14.95
2023-05-02T02:34:51.390Z,15.01
2023-05-02T02:38:03.022Z,14.97
2023-05-02T02:41:19.121Z,14.93
2023-05-02T02:44:33.790Z,14.95
2023-05-02T02:47:45.998Z,14.98
2023-05-02T02:50:51.474Z,14.86
2023-05-02T02:54:05.906Z,14.81
2023-05-02T02:57:28.415Z,14.80
2023-05-02T03:00:32.650Z,14.77
2023-05-02T03:03:36.594Z,14.69
2023-05-02T03:06:39.527Z,14.68
2023-05-02T03:09:42.676Z,14.66
2023-05-02T03:12:45.675Z,14.64
2023-05-02T03:15:51.349Z,14.58
2023-05-02T03:18:54.522Z,14.55
2023-05-02T03:21:57.785Z,14.52
2023-05-02T03:25:00.433Z,14.50
2023-05-02T03:28:03.495Z,14.48
2023-05-02T03:31:06.401Z,14.49
2023-05-02T03:34:10.737Z,14.48
2023-05-02T03:37:13.713Z,14.46
2023-05-02T03:40:16.590Z,14.45
2023-05-02T03:43:20.109Z,14.42
2023-05-02T03:46:22.960Z,14.42
2023-05-02T03:49:25.922Z,14.38
2023-05-02T03:52:28.805Z,14.37
2023-05-02T03:55:31.820Z,14.36
2023-05-02T03:58:36.369Z,14.34
2023-05-02T04:01:40.072Z,14.31
2023-05-02T04:04:43.997Z,14.32
2023-05-02T04:07:47.658Z,14.29
2023-05-02T04:10:51.976Z,14.33
2023-05-02T04:13:54.789Z,14.26
2023-05-02T04:16:57.594Z,14.17
2023-05-02T04:20:04.035Z,14.16
2023-05-02T04:23:08.786Z,14.18
2023-05-02T04:26:11.453Z,14.25
2023-05-02T04:29:15.252Z,14.30
2023-05-02T04:32:18.244Z,14.34
2023-05-02T04:35:21.192Z,14.35
2023-05-02T04:38:23.914Z,14.30
2023-05-02T04:41:27.844Z,14.49
2023-05-02T04:44:31.358Z,14.44
2023-05-02T04:47:34.124Z,14.33
2023-05-02T04:50:36.715Z,14.30
2023-05-02T04:53:41.140Z,14.42
2023-05-02T04:56:43.818Z,14.44
2023-05-02T04:59:46.830Z,14.49
2023-05-02T05:02:49.646Z,14.55
2023-05-02T05:05:52.663Z,14.53
2023-05-02T05:08:56.274Z,14.56
2023-05-02T05:11:58.890Z,14.62
2023-05-02T05:15:01.840Z,14.76
2023-05-02T05:18:04.896Z,14.76
2023-05-02T05:21:08.372Z,14.86
2023-05-02T05:24:11.150Z,14.88
2023-05-02T05:27:13.805Z,14.85
2023-05-02T05:30:16.472Z,14.90
2023-05-02T05:33:19.309Z,14.94
2023-05-02T05:36:23.578Z,15.07
2023-05-02T05:39:26.732Z,15.15
2023-05-02T05:42:29.598Z,15.22
2023-05-02T05:45:32.938Z,15.38
2023-05-02T05:48:35.690Z,15.51
2023-05-02T05:51:38.312Z,15.50
2023-05-02T05:54:41.232Z,15.57
2023-05-02T05:57:44.488Z,15.69
2023-05-02T06:00:47.121Z,15.76
2023-05-02T06:03:50.163Z,15.90
2023-05-02T06:06:53.930Z,15.98
2023-05-02T06:09:56.936Z,16.19
2023-05-02T06:13:00.005Z,16.38
2023-05-02T06:16:03.469Z,16.43
2023-05-02T06:19:05.872Z,16.48
2023-05-02T06:22:08.719Z,16.56
2023-05-02T06:25:11.138Z,16.81
2023-05-02T06:28:13.980Z,16.94
2023-05-02T06:31:17.064Z,17.09
2023-05-02T06:34:19.918Z,17.04
2023-05-02T06:37:22.229Z,17.12
2023-05-02T06:40:25.308Z,17.20
2023-05-02T06:43:28.281Z,17.32
2023-05-02T06:46:31.679Z,17.48
2023-05-02T06:49:34.090Z,17.63
2023-05-02T06:52:36.975Z,18.06
2023-05-02T06:55:41.711Z,18.09
2023-05-02T06:58:44.956Z,18.12
2023-05-02T07:01:47.233Z,18.35
2023-05-02T07:04:50.098Z,18.51
2023-05-02T07:07:52.551Z,18.83
2023-05-02T07:10:55.379Z,18.85
2023-05-02T07:13:57.947Z,18.99
2023-05-02T07:17:00.999Z,19.27
2023-05-02T07:20:03.918Z,19.55
2023-05-02T07:23:07.224Z,19.80
2023-05-02T07:26:09.589Z,20.15
2023-05-02T07:29:12.474Z,20.46
2023-05-02T07:32:15.119Z,20.70
2023-05-02T07:35:17.768Z,20.92
2023-05-02T07:38:20.758Z,21.17
2023-05-02T07:41:23.415Z,21.28
2023-05-02T07:44:26.033Z,21.49
2023-05-02T07:47:29.416Z,21.65
2023-05-02T07:50:32.136Z,21.87
2023-05-02T07:53:36.842Z,22.22
2023-05-02T07:56:39.541Z,22.46
2023-05-02T07:59:42.514Z,22.72
2023-05-02T08:02:46.323Z,23.06
2023-05-02T08:05:51.954Z,23.12
2023-05-02T08:08:54.857Z,23.13
2023-05-02T08:11:57.976Z,23.28
2023-05-02T08:15:04.274Z,23.45
2023-05-02T08:18:07.193Z,23.55
2023-05-02T08:21:10.794Z,23.75
2023-05-02T08:24:13.429Z,24.00
2023-05-02T08:27:16.187Z,24.52
2023-05-02T08:30:18.892Z,24.79
2023-05-02T08:33:21.739Z,24.92
2023-05-02T08:36:24.575Z,25.24
2023-05-02T08:39:27.206Z,25.66
2023-05-02T08:42:32.671Z,25.96
2023-05-02T08:45:39.015Z,25.85
2023-05-02T08:48:42.520Z,25.85
2023-05-02T08:51:45.469Z,25.92
2023-05-02T08:54:49.381Z,25.88
2023-05-02T08:57:52.804Z,25.52
2023-05-02T09:00:56.162Z,25.80
2023-05-02T09:03:59.666Z,26.46
2023-05-02T09:07:02.333Z,26.74
2023-05-02T09:10:07.203Z,27.06
2023-05-02T09:13:28.902Z,27.27
2023-05-02T09:16:38.461Z,27.63
2023-05-02T09:19:41.518Z,27.49
2023-05-02T09:22:51.578Z,27.16
2023-05-02T09:25:54.573Z,27.18
2023-05-02T09:28:57.526Z,26.99
2023-05-02T09:32:00.260Z,27.21
2023-05-02T09:35:06.704Z,27.85
2023-05-02T09:38:19.881Z,28.34
2023-05-02T09:41:22.529Z,28.52
2023-05-02T09:44:26.219Z,28.81
2023-05-02T09:47:28.904Z,29.11
2023-05-02T09:50:38.426Z,29.16
2023-05-02T09:53:44.035Z,29.72
2023-05-02T09:56:56.902Z,30.02
2023-05-02T09:59:59.671Z,30.18
2023-05-02T10:03:03.707Z,30.19
2023-05-02T10:06:08.627Z,29.81
2023-05-02T10:09:15.416Z,30.20
2023-05-02T10:12:25.987Z,29.33
2023-05-02T10:15:33.370Z,28.97
2023-05-02T10:18:46.834Z,29.19
2023-05-02T10:21:49.692Z,29.43
2023-05-02T10:24:53.388Z,29.91
2023-05-02T10:28:01.606Z,30.25
2023-05-02T10:31:05.434Z,30.33
2023-05-02T10:34:10.701Z,30.41
2023-05-02T10:37:13.885Z,30.30
2023-05-02T10:40:16.384Z,30.27
2023-05-02T10:43:19.371Z,30.79
2023-05-02T10:46:32.426Z,31.08
2023-05-02T10:49:49.369Z,31.12
2023-05-02T10:52:51.712Z,31.26
2023-05-02T10:56:14.113Z,31.13
2023-05-02T10:59:36.278Z,31.25
2023-05-02T11:02:42.794Z,31.13
2023-05-02T11:06:04.016Z,30.70
2023-05-02T11:09:14.664Z,30.31
2023-05-02T11:12:35.929Z,30.72
2023-05-02T11:15:41.842Z,30.54
2023-05-02T11:19:01.242Z,30.24
2023-05-02T11:22:25.852Z,29.46
2023-05-02T11:25:35.639Z,29.10
2023-05-02T11:28:38.705Z,28.89
2023-05-02T11:31:53.974Z,28.62
2023-05-02T11:34:57.308Z,28.56
2023-05-02T11:38:00.998Z,28.67
2023-05-02T11:41:04.564Z,28.80
2023-05-02T11:44:07.284Z,29.01
2023-05-02T11:47:10.159Z,28.95
2023-05-02T11:50:12.802Z,28.28
2023-05-02T11:53:16.877Z,27.73
2023-05-02T11:56:23.454Z,27.85
2023-05-02T11:59:26.742Z,27.54
2023-05-02T12:02:36.398Z,26.73
2023-05-02T12:05:42.167Z,26.15
2023-05-02T12:08:44.767Z,25.71
2023-05-02T12:11:56.838Z,26.05
2023-05-02T12:15:04.008Z,26.32
2023-05-02T12:18:09.609Z,26.04
2023-05-02T12:21:12.285Z,25.78
2023-05-02T12:24:15.672Z,25.53
2023-05-02T12:27:18.025Z,25.49
2023-05-02T12:30:27.676Z,25.86
2023-05-02T12:33:30.049Z,26.03
2023-05-02T12:36:33.959Z,26.14
2023-05-02T12:39:40.215Z,26.00
2023-05-02T12:42:43.290Z,25.77
2023-05-02T12:45:45.913Z,25.96
2023-05-02T12:49:01.493Z,26.33
2023-05-02T12:52:03.901Z,26.35
2023-05-02T12:55:20.268Z,25.98
2023-05-02T12:58:25.521Z,25.77
2023-05-02T13:01:28.888Z,25.36
2023-05-02T13:04:35.044Z,25.10
2023-05-02T13:07:37.949Z,24.86
2023-05-02T13:10:40.646Z,24.81
2023-05-02T13:13:43.570Z,24.62
2023-05-02T13:16:45.976Z,24.33
2023-05-02T13:20:00.345Z,24.32
2023-05-02T13:23:04.085Z,24.28
2023-05-02T13:26:07.257Z,24.22
2023-05-02T13:29:11.738Z,23.96
2023-05-02T13:32:14.675Z,23.91
2023-05-02T13:35:17.205Z,23.86
2023-05-02T13:38:20.157Z,23.82
2023-05-02T13:41:24.653Z,23.92
2023-05-02T13:44:27.604Z,23.89
2023-05-02T13:47:29.972Z,24.09
2023-05-02T13:50:37.447Z,24.05
2023-05-02T13:53:39.823Z,24.04
2023-05-02T13:56:43.510Z,24.05
2023-05-02T13:59:45.872Z,24.23
2023-05-02T14:02:49.180Z,23.97
2023-05-02T14:05:51.868Z,23.95
2023-05-02T14:08:54.521Z,23.83
2023-05-02T14:11:58.947Z,23.73
2023-05-02T14:15:01.580Z,23.76
2023-05-02T14:18:04.328Z,23.67
2023-05-02T14:21:07.154Z,23.69
2023-05-02T14:24:09.942Z,23.48
2023-05-02T14:27:18.153Z,23.59
2023-05-02T14:30:20.876Z,23.51
2023-05-02T14:33:23.558Z,23.54
2023-05-02T14:36:27.124Z,23.67
2023-05-02T14:39:29.825Z,23.62
2023-05-02T14:42:32.457Z,23.53
2023-05-02T14:45:35.186Z,23.49
2023-05-02T14:48:37.889Z,23.47
2023-05-02T14:51:40.551Z,23.48
2023-05-02T14:54:43.188Z,23.48
2023-05-02T14:57:45.843Z,23.35
2023-05-02T15:00:48.777Z,23.27
2023-05-02T15:04:05.832Z,23.12
2023-05-02T15:07:10.408Z,23.14
2023-05-02T15:10:13.041Z,23.27
2023-05-02T15:13:15.913Z,23.08
2023-05-02T15:16:18.593Z,23.02
2023-05-02T15:19:25.269Z,22.98
2023-05-02T15:22:28.046Z,22.91
2023-05-02T15:25:31.126Z,22.78
2023-05-02T15:28:33.850Z,22.06
2023-05-02T15:31:37.127Z,20.60
2023-05-02T15:34:39.782Z,19.89
2023-05-02T15:37:42.418Z,19.99
2023-05-02T15:40:45.508Z,20.30
2023-05-02T15:43:48.185Z,20.72
2023-05-02T15:46:50.948Z,21.13
2023-05-02T15:49:55.041Z,21.31
2023-05-02T15:52:57.750Z,21.60
2023-05-02T15:56:00.368Z,21.75
2023-05-02T15:59:03.252Z,21.68
2023-05-02T16:02:08.388Z,21.80
2023-05-02T16:05:11.374Z,21.84
2023-05-02T16:08:13.763Z,21.95
2023-05-02T16:11:16.716Z,21.98
2023-05-02T16:14:19.221Z,22.01
2023-05-02T16:17:22.283Z,22.09
2023-05-02T16:20:24.719Z,22.16
2023-05-02T16:23:27.705Z,22.14
2023-05-02T16:26:32.616Z,22.10
2023-05-02T16:29:35.611Z,22.07
2023-05-02T16:32:38.271Z,22.08
2023-05-02T16:35:41.706Z,22.29
2023-05-02T16:38:44.152Z,22.21
2023-05-02T16:41:47.229Z,22.20
2023-05-02T16:44:50.023Z,22.17
2023-05-02T16:47:53.016Z,22.25
2023-05-02T16:50:55.508Z,22.08
2023-05-02T16:54:01.031Z,22.28
2023-05-02T16:57:03.985Z,22.21
2023-05-02T17:00:10.645Z,22.09
2023-05-02T17:03:13.302Z,21.97
2023-05-02T17:06:17.342Z,21.83
2023-05-02T17:09:20.437Z,21.75
2023-05-02T17:12:23.472Z,21.50
2023-05-02T17:15:26.054Z,21.37
2023-05-02T17:18:29.168Z,21.18
2023-05-02T17:21:32.500Z,21.06
2023-05-02T17:24:36.589Z,20.87
2023-05-02T17:27:41.002Z,20.72
2023-05-02T17:30:44.626Z,20.71
2023-05-02T17:33:47.547Z,20.58
2023-05-02T17:36:50.706Z,20.49
2023-05-02T17:39:53.002Z,20.43
2023-05-02T17:42:58.673Z,20.28
2023-05-02T17:46:06.407Z,20.14
2023-05-02T17:49:09.506Z,19.97
2023-05-02T17:52:11.804Z,19.91
2023-05-02T17:55:18.407Z,19.90
2023-05-02T17:58:21.519Z,19.91
2023-05-02T18:01:24.485Z,20.07
2023-05-02T18:04:27.208Z,20.15
2023-05-02T18:07:30.173Z,20.06
2023-05-02T18:10:37.061Z,19.96
2023-05-02T18:13:39.815Z,19.91
2023-05-02T18:16:47.049Z,19.90
2023-05-02T18:19:50.385Z,19.81
2023-05-02T18:22:57.073Z,19.76
2023-05-02T18:25:59.813Z,19.75
2023-05-02T18:29:02.469Z,19.67
2023-05-02T18:32:05.277Z,19.69
2023-05-02T18:35:10.533Z,19.71
2023-05-02T18:38:14.116Z,19.60
2023-05-02T18:41:17.549Z,19.52
2023-05-02T18:44:20.119Z,19.45
2023-05-02T18:47:24.705Z,19.49
2023-05-02T18:50:27.352Z,19.50
2023-05-02T18:53:30.222Z,19.47
2023-05-02T18:56:32.867Z,19.32
2023-05-02T18:59:35.547Z,19.30
2023-05-02T19:02:38.255Z,19.29
2023-05-02T19:05:41.871Z,19.09
2023-05-02T19:08:48.311Z,18.99
2023-05-02T19:11:51.797Z,18.97
2023-05-02T19:14:54.457Z,18.94
2023-05-02T19:17:57.927Z,18.90
2023-05-02T19:21:07.378Z,18.90
2023-05-02T19:24:10.485Z,18.85
2023-05-02T19:27:12.950Z,18.88
2023-05-02T19:30:16.006Z,18.83
2023-05-02T19:33:18.587Z,18.80
2023-05-02T19:36:23.107Z,18.60
2023-05-02T19:39:25.553Z,18.41
2023-05-02T19:42:28.849Z,18.35
2023-05-02T19:45:31.417Z,18.39
2023-05-02T19:48:34.603Z,18.33
2023-05-02T19:51:37.010Z,18.25
2023-05-02T19:54:39.990Z,18.35
2023-05-02T19:57:44.617Z,18.18
2023-05-02T20:00:49.519Z,18.22
2023-05-02T20:03:52.349Z,18.18
2023-05-02T20:06:55.906Z,18.09
2023-05-02T20:09:58.697Z,18.10
2023-05-02T20:13:01.588Z,18.08
2023-05-02T20:16:04.405Z,17.94
2023-05-02T20:19:07.279Z,17.86
2023-05-02T20:22:09.916Z,17.80
2023-05-02T20:25:12.768Z,17.83
2023-05-02T20:28:15.450Z,17.91
2023-05-02T20:31:18.071Z,17.70
2023-05-02T20:34:20.819Z,17.76
2023-05-02T20:37:23.753Z,17.56
2023-05-02T20:40:27.739Z,17.48
2023-05-02T20:43:30.777Z,17.35
2023-05-02T20:46:33.856Z,17.31
2023-05-02T20:49:36.479Z,17.18
2023-05-02T20:52:39.267Z,17.11
2023-05-02T20:55:42.972Z,17.06
2023-05-02T20:58:45.705Z,17.08
2023-05-02T21:01:48.338Z,17.13
2023-05-02T21:04:51.707Z,17.23
2023-05-02T21:07:54.306Z,17.22
2023-05-02T21:10:56.909Z,17.14
2023-05-02T21:13:59.497Z,17.11
2023-05-02T21:17:03.678Z,17.13
2023-05-02T21:20:07.049Z,17.19
2023-05-02T21:23:12.562Z,17.23
2023-05-02T21:26:15.350Z,17.16
2023-05-02T21:29:18.666Z,17.13
2023-05-02T21:32:22.779Z,17.04
2023-05-02T21:35:25.750Z,17.08
2023-05-02T21:38:28.483Z,16.99
2023-05-02T21:41:31.353Z,17.09
2023-05-02T21:44:35.236Z,17.03
2023-05-02T21:47:37.934Z,16.93
2023-05-02T21:50:44.449Z,16.90
2023-05-02T21:53:47.084Z,16.89
2023-05-02T21:56:49.703Z,16.93
2023-05-02T21:59:52.445Z,17.00
2023-05-02T22:02:55.084Z,16.97
2023-05-02T22:06:00.943Z,16.96
2023-05-02T22:09:05.097Z,16.97
2023-05-02T22:12:08.095Z,16.97
2023-05-02T22:15:11.673Z,16.94
2023-05-02T22:18:17.802Z,16.96
2023-05-02T22:21:20.614Z,16.92
2023-05-02T22:24:23.312Z,16.94
2023-05-02T22:27:26.089Z,16.92
2023-05-02T22:30:28.810Z,16.90
2023-05-02T22:33:31.982Z,16.80
2023-05-02T22:36:35.833Z,16.76
2023-05-02T22:39:38.730Z,16.75
2023-05-02T22:42:41.471Z,16.81
2023-05-02T22:45:44.057Z,16.78
2023-05-02T22:48:48.665Z,16.70
2023-05-02T22:51:52.148Z,16.66
2023-05-02T22:54:54.719Z,16.72
2023-05-02T22:57:57.528Z,16.72
2023-05-02T23:01:00.149Z,16.66
2023-05-02T23:04:02.865Z,16.66
2023-05-02T23:07:06.080Z,16.70
2023-05-02T23:10:09.327Z,16.74
2023-05-02T23:13:12.526Z,16.75
2023-05-02T23:16:15.352Z,16.74
2023-05-02T23:19:18.040Z,16.81
2023-05-02T23:22:20.848Z,16.83
2023-05-02T23:25:26.399Z,16.69
2023-05-02T23:28:28.989Z,16.62
2023-05-02T23:31:31.584Z,16.60
2023-05-02T23:34:36.337Z,16.46
2023-05-02T23:37:40.056Z,16.33
2023-05-02T23:40:42.679Z,16.24
2023-05-02T23:43:45.243Z,16.15
2023-05-02T23:46:48.026Z,16.01
2023-05-02T23:49:50.732Z,15.96
2023-05-02T23:52:53.334Z,15.92
2023-05-02T23:55:57.378Z,15.89
2023-05-02T23:59:00.003Z,15.88
